createdAt,value
2018-09-08T00:00:02.711Z,15.18
2018-09-08T00:01:03.124Z,15.14
2018-09-08T00:02:03.814Z,15.12
2018-09-08T00:03:04.230Z,15.12
2018-09-08T00:04:04.923Z,15.14
2018-09-08T00:05:05.615Z,15.17
2018-09-08T00:06:06.027Z,15.32
2018-09-08T00:07:06.443Z,15.29
2018-09-08T00:08:07.429Z,15.29
2018-09-08T00:09:08.123Z,15.35
2018-09-08T00:10:08.538Z,15.35
2018-09-08T00:11:08.951Z,15.39
2018-09-08T00:12:09.368Z,15.47
2018-09-08T00:13:10.062Z,15.36
2018-09-08T00:14:10.194Z,15.45
2018-09-08T00:15:10.608Z,15.62
2018-09-08T00:16:11.023Z,15.65
2018-09-08T00:17:11.159Z,15.63
2018-09-08T00:18:11.699Z,15.78
2018-09-08T00:19:12.391Z,15.75
2018-09-08T00:20:12.808Z,15.65
2018-09-08T00:21:13.220Z,15.73
2018-09-08T00:22:13.637Z,15.76
2018-09-08T00:23:13.770Z,15.8
2018-09-08T00:24:13.908Z,15.75
2018-09-08T00:25:14.318Z,15.76
2018-09-08T00:26:15.066Z,15.81
2018-09-08T00:27:15.479Z,15.85
2018-09-08T00:28:15.471Z,15.9
2018-09-08T00:29:16.161Z,15.9
2018-09-08T00:30:16.851Z,15.96
2018-09-08T00:31:17.268Z,15.99
2018-09-08T00:32:17.683Z,16
2018-09-08T00:33:17.821Z,15.94
2018-09-08T00:34:17.959Z,16.08
2018-09-08T00:35:18.652Z,16.05
2018-09-08T00:36:19.349Z,16.02
2018-09-08T00:37:19.764Z,16.09
2018-09-08T00:38:20.656Z,16.13
2018-09-08T00:39:20.642Z,16.16
2018-09-08T00:40:20.782Z,16.13
2018-09-08T00:41:20.916Z,16.22
2018-09-08T00:42:21.055Z,16.22
2018-09-08T00:43:21.215Z,16.29
2018-09-08T00:44:21.621Z,16.32
2018-09-08T00:45:21.762Z,16.26
2018-09-08T00:46:22.736Z,16.24
2018-09-08T00:47:23.430Z,16.28
2018-09-08T00:48:23.976Z,16.12
2018-09-08T00:49:24.388Z,16.16
2018-09-08T00:50:25.080Z,16.21
2018-09-08T00:51:25.492Z,16.17
2018-09-08T00:52:25.906Z,16.16
2018-09-08T00:53:26.038Z,16.21
2018-09-08T00:54:26.460Z,16.08
2018-09-08T00:55:26.585Z,16.08
2018-09-08T00:56:26.722Z,16.05
2018-09-08T00:57:27.415Z,16.09
2018-09-08T00:58:27.406Z,15.98
2018-09-08T00:59:27.821Z,15.91
2018-09-08T01:00:28.515Z,15.88
2018-09-08T01:01:28.929Z,15.81
2018-09-08T01:02:29.621Z,15.85
2018-09-08T01:03:30.035Z,15.81
2018-09-08T01:04:30.448Z,15.88
2018-09-08T01:05:31.142Z,15.84
2018-09-08T01:06:31.832Z,15.78
2018-09-08T01:07:32.569Z,15.76
2018-09-08T01:08:32.557Z,15.72
2018-09-08T01:09:32.972Z,15.73
2018-09-08T01:10:33.110Z,15.52
2018-09-08T01:11:33.247Z,15.62
2018-09-08T01:12:33.382Z,15.57
2018-09-08T01:13:33.520Z,15.6
2018-09-08T01:14:33.935Z,15.57
2018-09-08T01:15:34.348Z,15.59
2018-09-08T01:16:34.483Z,15.59
2018-09-08T01:17:34.619Z,15.51
2018-09-08T01:18:35.196Z,15.44
2018-09-08T01:19:35.616Z,15.43
2018-09-08T01:20:36.037Z,15.43
2018-09-08T01:21:36.174Z,15.29
2018-09-08T01:22:36.589Z,15.3
2018-09-08T01:23:37.280Z,15.26
2018-09-08T01:24:37.694Z,15.27
2018-09-08T01:25:38.665Z,15.35
2018-09-08T01:26:39.076Z,15.33
2018-09-08T01:27:39.217Z,15.35
2018-09-08T01:28:40.201Z,15.35
2018-09-08T01:29:40.615Z,15.3
2018-09-08T01:30:41.308Z,15.32
2018-09-08T01:31:41.721Z,15.43
2018-09-08T01:32:42.141Z,15.43
2018-09-08T01:33:42.831Z,15.43
2018-09-08T01:34:43.245Z,15.51
2018-09-08T01:35:43.662Z,15.43
2018-09-08T01:36:43.800Z,15.48
2018-09-08T01:37:44.214Z,15.59
2018-09-08T01:38:45.225Z,15.47
2018-09-08T01:39:45.919Z,15.48
2018-09-08T01:40:46.054Z,15.5
2018-09-08T01:41:46.467Z,15.55
2018-09-08T01:42:46.877Z,15.5
2018-09-08T01:43:47.290Z,15.62
2018-09-08T01:44:47.705Z,15.6
2018-09-08T01:45:48.396Z,15.62
2018-09-08T01:46:48.808Z,15.5
2018-09-08T01:47:49.501Z,15.59
2018-09-08T01:48:49.488Z,15.57
2018-09-08T01:49:49.900Z,15.41
2018-09-08T01:50:50.313Z,15.41
2018-09-08T01:51:51.010Z,15.41
2018-09-08T01:52:51.700Z,15.45
2018-09-08T01:53:51.833Z,15.39
2018-09-08T01:54:52.248Z,15.5
2018-09-08T01:55:52.662Z,15.44
2018-09-08T01:56:52.797Z,15.41
2018-09-08T01:57:52.934Z,15.47
2018-09-08T01:58:54.196Z,15.45
2018-09-08T01:59:54.334Z,15.45
2018-09-08T02:00:55.302Z,15.48
2018-09-08T02:01:55.717Z,15.36
2018-09-08T02:02:55.850Z,15.48
2018-09-08T02:03:56.268Z,15.54
2018-09-08T02:04:57.236Z,15.55
2018-09-08T02:05:57.932Z,15.51
2018-09-08T02:06:58.940Z,15.57
2018-09-08T02:07:59.358Z,15.55
2018-09-08T02:08:59.612Z,15.57
2018-09-08T02:10:00.025Z,15.59
2018-09-08T02:11:00.993Z,15.6
2018-09-08T02:12:01.407Z,15.62
2018-09-08T02:13:01.541Z,15.65
2018-09-08T02:14:02.232Z,15.57
2018-09-08T02:15:02.655Z,15.6
2018-09-08T02:16:03.620Z,15.54
2018-09-08T02:17:04.313Z,15.54
2018-09-08T02:18:05.005Z,15.55
2018-09-08T02:19:05.269Z,15.54
2018-09-08T02:20:05.681Z,15.54
2018-09-08T02:21:06.649Z,15.62
2018-09-08T02:22:06.790Z,15.59
2018-09-08T02:23:07.198Z,15.62
2018-09-08T02:24:07.334Z,15.63
2018-09-08T02:25:07.473Z,15.63
2018-09-08T02:26:07.884Z,15.59
2018-09-08T02:27:08.022Z,15.57
2018-09-08T02:28:08.718Z,15.54
2018-09-08T02:29:09.257Z,15.48
2018-09-08T02:30:09.950Z,15.57
2018-09-08T02:31:09.926Z,15.54
2018-09-08T02:32:10.615Z,15.6
2018-09-08T02:33:11.026Z,15.55
2018-09-08T02:34:11.163Z,15.55
2018-09-08T02:35:11.577Z,15.52
2018-09-08T02:36:12.268Z,15.52
2018-09-08T02:37:12.962Z,15.5
2018-09-08T02:38:13.653Z,15.41
2018-09-08T02:39:14.639Z,15.37
2018-09-08T02:40:14.786Z,15.47
2018-09-08T02:41:15.756Z,15.55
2018-09-08T02:42:16.447Z,15.52
2018-09-08T02:43:16.864Z,15.57
2018-09-08T02:44:16.994Z,15.52
2018-09-08T02:45:17.413Z,15.47
2018-09-08T02:46:17.823Z,15.44
2018-09-08T02:47:18.238Z,15.43
2018-09-08T02:48:18.653Z,15.44
2018-09-08T02:49:18.916Z,15.35
2018-09-08T02:50:19.329Z,15.33
2018-09-08T02:51:19.754Z,15.29
2018-09-08T02:52:19.893Z,15.32
2018-09-08T02:53:21.144Z,15.22
2018-09-08T02:54:21.559Z,15.3
2018-09-08T02:55:22.259Z,15.19
2018-09-08T02:56:22.672Z,15.26
2018-09-08T02:57:22.809Z,15.23
2018-09-08T02:58:23.223Z,15.23
2018-09-08T02:59:24.485Z,15.17
2018-09-08T03:00:25.183Z,15.18
2018-09-08T03:01:25.598Z,15.1
2018-09-08T03:02:26.015Z,15.05
2018-09-08T03:03:26.707Z,15.05
2018-09-08T03:04:27.117Z,15.02
2018-09-08T03:05:28.085Z,14.94
2018-09-08T03:06:28.222Z,15.04
2018-09-08T03:07:28.646Z,15.04
2018-09-08T03:08:29.060Z,15.05
2018-09-08T03:09:29.045Z,14.9
2018-09-08T03:10:29.460Z,15.05
2018-09-08T03:11:30.152Z,14.89
2018-09-08T03:12:30.850Z,14.85
2018-09-08T03:13:30.990Z,14.82
2018-09-08T03:14:31.680Z,14.82
2018-09-08T03:15:32.101Z,14.79
2018-09-08T03:16:32.236Z,14.92
2018-09-08T03:17:32.384Z,14.94
2018-09-08T03:18:32.797Z,14.97
2018-09-08T03:19:33.380Z,14.99
2018-09-08T03:20:33.349Z,14.99
2018-09-08T03:21:34.594Z,15.04
2018-09-08T03:22:35.010Z,15.02
2018-09-08T03:23:35.146Z,15.1
2018-09-08T03:24:35.836Z,15.07
2018-09-08T03:25:35.974Z,15
2018-09-08T03:26:36.385Z,15.05
2018-09-08T03:27:37.079Z,15.12
2018-09-08T03:28:37.215Z,15.11
2018-09-08T03:29:38.202Z,15.1
2018-09-08T03:30:38.633Z,15.14
2018-09-08T03:31:39.041Z,15.08
2018-09-08T03:32:39.734Z,15.18
2018-09-08T03:33:40.432Z,15.14
2018-09-08T03:34:41.117Z,15.15
2018-09-08T03:35:41.534Z,15.23
2018-09-08T03:36:41.667Z,15.1
2018-09-08T03:37:42.080Z,15.14
2018-09-08T03:38:42.491Z,15.14
2018-09-08T03:39:43.755Z,15.07
2018-09-08T03:40:43.894Z,15.15
2018-09-08T03:41:44.308Z,15.07
2018-09-08T03:42:44.721Z,15.11
2018-09-08T03:43:44.860Z,15.15
2018-09-08T03:44:45.554Z,15.11
2018-09-08T03:45:45.527Z,15.17
2018-09-08T03:46:45.937Z,15.19
2018-09-08T03:47:46.348Z,15.27
2018-09-08T03:48:46.763Z,15.17
2018-09-08T03:49:46.746Z,15.18
2018-09-08T03:50:47.156Z,15.15
2018-09-08T03:51:47.571Z,15.18
2018-09-08T03:52:48.261Z,15.12
2018-09-08T03:53:48.675Z,15.29
2018-09-08T03:54:49.089Z,15.19
2018-09-08T03:55:49.232Z,15.22
2018-09-08T03:56:49.635Z,15.25
2018-09-08T03:57:50.332Z,15.27
2018-09-08T03:58:50.517Z,15.27
2018-09-08T03:59:51.087Z,15.27
2018-09-08T04:00:51.777Z,15.29
2018-09-08T04:01:52.469Z,15.33
2018-09-08T04:02:53.158Z,15.43
2018-09-08T04:03:53.845Z,15.29
2018-09-08T04:04:54.255Z,15.36
2018-09-08T04:05:54.668Z,15.3
2018-09-08T04:06:55.355Z,15.29
2018-09-08T04:07:55.483Z,15.26
2018-09-08T04:08:55.896Z,15.26
2018-09-08T04:09:56.159Z,15.23
2018-09-08T04:10:56.570Z,15.15
2018-09-08T04:11:56.979Z,15.12
2018-09-08T04:12:57.391Z,15.17
2018-09-08T04:13:57.524Z,15.14
2018-09-08T04:14:57.936Z,15.1
2018-09-08T04:15:58.072Z,15.02
2018-09-08T04:16:58.779Z,15.07
2018-09-08T04:17:59.599Z,15.1
2018-09-08T04:18:59.953Z,15
2018-09-08T04:20:00.661Z,15.07
2018-09-08T04:21:01.630Z,14.99
2018-09-08T04:22:02.041Z,15
2018-09-08T04:23:02.179Z,14.89
2018-09-08T04:24:02.701Z,14.92
2018-09-08T04:25:03.022Z,14.77
2018-09-08T04:26:03.433Z,14.81
2018-09-08T04:27:04.125Z,14.74
2018-09-08T04:28:04.259Z,14.85
2018-09-08T04:29:04.668Z,14.78
2018-09-08T04:30:05.314Z,14.66
2018-09-08T04:31:05.728Z,14.71
2018-09-08T04:32:06.139Z,14.74
2018-09-08T04:33:06.830Z,14.77
2018-09-08T04:34:06.966Z,14.82
2018-09-08T04:35:07.934Z,14.78
2018-09-08T04:36:08.068Z,14.71
2018-09-08T04:37:09.034Z,14.52
2018-09-08T04:38:09.446Z,14.68
2018-09-08T04:39:09.857Z,14.59
2018-09-08T04:40:10.120Z,14.59
2018-09-08T04:41:10.533Z,14.61
2018-09-08T04:42:10.947Z,14.53
2018-09-08T04:43:11.636Z,14.55
2018-09-08T04:44:11.767Z,14.56
2018-09-08T04:45:12.185Z,14.67
2018-09-08T04:46:12.872Z,14.62
2018-09-08T04:47:13.005Z,14.52
2018-09-08T04:48:13.417Z,14.53
2018-09-08T04:49:14.014Z,14.52
2018-09-08T04:50:13.960Z,14.53
2018-09-08T04:51:14.644Z,14.58
2018-09-08T04:52:15.611Z,14.53
2018-09-08T04:53:16.025Z,14.62
2018-09-08T04:54:16.437Z,14.56
2018-09-08T04:55:16.848Z,14.53
2018-09-08T04:56:17.304Z,14.62
2018-09-08T04:57:17.677Z,14.59
2018-09-08T04:58:18.092Z,14.59
2018-09-08T04:59:18.786Z,14.68
2018-09-08T05:00:19.773Z,14.71
2018-09-08T05:01:20.466Z,14.63
2018-09-08T05:02:21.291Z,14.66
2018-09-08T05:03:20.714Z,14.77
2018-09-08T05:04:21.123Z,14.79
2018-09-08T05:05:21.261Z,14.78
2018-09-08T05:06:22.228Z,14.67
2018-09-08T05:07:22.924Z,14.7
2018-09-08T05:08:23.615Z,14.78
2018-09-08T05:09:24.030Z,14.85
2018-09-08T05:10:24.737Z,14.78
2018-09-08T05:11:25.151Z,14.92
2018-09-08T05:12:25.566Z,14.94
2018-09-08T05:13:25.980Z,14.93
2018-09-08T05:14:26.116Z,15.04
2018-09-08T05:15:26.252Z,15.04
2018-09-08T05:16:26.388Z,15
2018-09-08T05:17:26.804Z,15.07
2018-09-08T05:18:27.224Z,15.02
2018-09-08T05:19:27.634Z,15.02
2018-09-08T05:20:28.899Z,15.04
2018-09-08T05:21:29.318Z,15
2018-09-08T05:22:30.006Z,14.77
2018-09-08T05:24:02.530Z,14.66
2018-09-08T05:24:30.668Z,14.55
2018-09-08T05:25:31.085Z,14.41
2018-09-08T05:26:31.502Z,14.41
2018-09-08T05:27:31.918Z,14.3
2018-09-08T05:28:32.762Z,14.31
2018-09-08T05:29:33.449Z,14.25
2018-09-08T05:30:33.719Z,14.28
2018-09-08T05:31:34.129Z,14.22
2018-09-08T05:32:34.542Z,14.34
2018-09-08T05:33:35.516Z,14.3
2018-09-08T05:34:35.925Z,14.45
2018-09-08T05:35:36.063Z,14.49
2018-09-08T05:36:36.754Z,14.67
2018-09-08T05:37:37.444Z,14.67
2018-09-08T05:38:38.137Z,14.73
2018-09-08T05:39:38.829Z,14.74
2018-09-08T05:40:38.811Z,14.78
2018-09-08T05:41:38.948Z,14.82
2018-09-08T05:42:39.363Z,14.85
2018-09-08T05:43:40.055Z,14.86
2018-09-08T05:44:40.470Z,14.96
2018-09-08T05:45:40.891Z,15
2018-09-08T05:46:41.584Z,15.07
2018-09-08T05:47:41.996Z,15
2018-09-08T05:48:42.409Z,15.14
2018-09-08T05:49:42.826Z,15.12
2018-09-08T05:50:43.122Z,15.18
2018-09-08T05:51:44.053Z,15.22
2018-09-08T05:52:44.751Z,15.18
2018-09-08T05:53:45.162Z,15.19
2018-09-08T05:54:45.853Z,15.19
2018-09-08T05:55:46.265Z,15.23
2018-09-08T05:56:46.680Z,15.23
2018-09-08T05:57:47.100Z,15.26
2018-09-08T05:58:47.789Z,15.32
2018-09-08T05:59:48.202Z,15.32
2018-09-08T06:00:49.186Z,15.33
2018-09-08T06:01:49.878Z,15.37
2018-09-08T06:02:50.292Z,15.27
2018-09-08T06:03:50.712Z,15.41
2018-09-08T06:04:51.403Z,15.35
2018-09-08T06:05:51.816Z,15.41
2018-09-08T06:06:51.953Z,15.43
2018-09-08T06:07:52.364Z,15.48
2018-09-08T06:08:52.778Z,15.43
2018-09-08T06:09:53.475Z,15.35
2018-09-08T06:10:53.608Z,15.41
2018-09-08T06:11:54.582Z,15.3
2018-09-08T06:12:55.276Z,15.41
2018-09-08T06:13:56.247Z,15.29
2018-09-08T06:14:56.389Z,15.3
2018-09-08T06:15:57.079Z,15.39
2018-09-08T06:16:57.495Z,15.45
2018-09-08T06:17:57.935Z,15.51
2018-09-08T06:18:58.075Z,15.5
2018-09-08T06:19:59.323Z,15.55
2018-09-08T06:20:59.307Z,15.63
2018-09-08T06:21:59.723Z,15.66
2018-09-08T06:23:00.415Z,15.75
2018-09-08T06:24:00.553Z,15.78
2018-09-08T06:25:00.969Z,16.02
2018-09-08T06:26:01.664Z,16.13
2018-09-08T06:27:02.358Z,16.4
2018-09-08T06:28:02.499Z,16.62
2018-09-08T06:29:02.915Z,16.92
2018-09-08T06:30:03.608Z,17.27
2018-09-08T06:31:04.317Z,17.32
2018-09-08T06:32:04.455Z,17.56
2018-09-08T06:33:05.150Z,17.73
2018-09-08T06:34:05.293Z,17.91
2018-09-08T06:35:06.113Z,18.02
2018-09-08T06:36:06.234Z,18.12
2018-09-08T06:37:06.651Z,18.24
2018-09-08T06:38:06.792Z,18.41
2018-09-08T06:39:07.231Z,18.58
2018-09-08T06:40:07.485Z,18.68
2018-09-08T06:41:07.750Z,18.74
2018-09-08T06:42:08.444Z,18.91
2018-09-08T06:43:08.588Z,18.81
2018-09-08T06:44:09.293Z,18.76
2018-09-08T06:45:10.131Z,18.92
2018-09-08T06:46:10.882Z,18.86
2018-09-08T06:47:11.304Z,18.98
2018-09-08T06:48:11.998Z,18.89
2018-09-08T06:49:12.417Z,18.97
2018-09-08T06:50:12.558Z,18.98
2018-09-08T06:51:12.825Z,18.97
2018-09-08T06:52:13.984Z,19.09
2018-09-08T06:53:13.732Z,19.19
2018-09-08T06:54:14.433Z,19.2
2018-09-08T06:55:15.140Z,19.09
2018-09-08T06:56:15.851Z,18.97
2018-09-08T06:57:16.545Z,18.98
2018-09-08T06:58:17.245Z,18.94
2018-09-08T06:59:17.384Z,18.89
2018-09-08T07:00:18.080Z,18.82
2018-09-08T07:01:19.070Z,18.7
2018-09-08T07:02:19.210Z,18.73
2018-09-08T07:03:19.396Z,18.73
2018-09-08T07:04:19.877Z,18.57
2018-09-08T07:05:20.294Z,18.46
2018-09-08T07:06:20.435Z,18.51
2018-09-08T07:07:20.854Z,18.57
2018-09-08T07:08:21.551Z,18.48
2018-09-08T07:09:22.246Z,18.52
2018-09-08T07:10:22.385Z,18.51
2018-09-08T07:11:23.376Z,18.46
2018-09-08T07:12:23.793Z,18.46
2018-09-08T07:13:24.217Z,18.43
2018-09-08T07:14:24.908Z,18.18
2018-09-08T07:15:25.048Z,18.06
2018-09-08T07:16:25.187Z,17.79
2018-09-08T07:17:25.329Z,17.76
2018-09-08T07:18:26.303Z,17.79
2018-09-08T07:19:26.997Z,17.75
2018-09-08T07:20:27.136Z,17.75
2018-09-08T07:21:27.162Z,17.72
2018-09-08T07:22:28.136Z,17.73
2018-09-08T07:23:28.280Z,17.75
2018-09-08T07:24:28.418Z,17.71
2018-09-08T07:25:28.558Z,17.54
2018-09-08T07:26:29.255Z,17.54
2018-09-08T07:27:29.397Z,17.49
2018-09-08T07:28:29.537Z,17.38
2018-09-08T07:29:29.956Z,17.5
2018-09-08T07:30:30.373Z,17.68
2018-09-08T07:31:30.360Z,17.76
2018-09-08T07:32:31.057Z,17.91
2018-09-08T07:33:32.035Z,18.03
2018-09-08T07:34:32.455Z,18.23
2018-09-08T07:35:32.873Z,18.37
2018-09-08T07:36:33.571Z,18.42
2018-09-08T07:37:33.983Z,18.49
2018-09-08T07:38:34.684Z,18.64
2018-09-08T07:39:34.823Z,18.88
2018-09-08T07:40:35.518Z,18.86
2018-09-08T07:41:36.232Z,18.91
2018-09-08T07:42:36.374Z,19.11
2018-09-08T07:43:37.069Z,19.27
2018-09-08T07:44:37.773Z,19.45
2018-09-08T07:45:38.744Z,19.49
2018-09-08T07:46:39.167Z,19.63
2018-09-08T07:47:39.585Z,19.74
2018-09-08T07:48:39.725Z,19.75
2018-09-08T07:49:39.867Z,19.64
2018-09-08T07:50:40.568Z,19.72
2018-09-08T07:51:40.559Z,19.47
2018-09-08T07:52:41.256Z,19
2018-09-08T07:53:42.523Z,18.96
2018-09-08T07:54:41.920Z,18.68
2018-09-08T07:55:42.909Z,18.64
2018-09-08T07:56:43.327Z,18.48
2018-09-08T07:57:43.469Z,18.27
2018-09-08T07:58:43.608Z,18.3
2018-09-08T07:59:44.305Z,18.36
2018-09-08T08:00:44.446Z,18.27
2018-09-08T08:01:44.716Z,18.46
2018-09-08T08:02:45.136Z,18.6
2018-09-08T08:03:45.557Z,18.71
2018-09-08T08:04:46.533Z,18.76
2018-09-08T08:05:47.232Z,18.79
2018-09-08T08:06:48.366Z,18.71
2018-09-08T08:07:48.207Z,18.86
2018-09-08T08:08:48.351Z,18.97
2018-09-08T08:09:48.492Z,18.94
2018-09-08T08:10:48.909Z,18.91
2018-09-08T08:11:49.625Z,18.78
2018-09-08T08:12:50.602Z,18.6
2018-09-08T08:13:51.016Z,18.67
2018-09-08T08:14:51.435Z,18.79
2018-09-08T08:15:51.578Z,18.81
2018-09-08T08:16:52.274Z,18.91
2018-09-08T08:17:52.696Z,18.97
2018-09-08T08:18:53.110Z,19.04
2018-09-08T08:19:53.534Z,18.94
2018-09-08T08:20:53.568Z,18.88
2018-09-08T08:21:53.837Z,18.86
2018-09-08T08:22:54.258Z,18.89
2018-09-08T08:23:54.399Z,18.86
2018-09-08T08:24:54.540Z,18.74
2018-09-08T08:25:55.235Z,18.68
2018-09-08T08:26:55.934Z,18.45
2018-09-08T08:27:56.356Z,18.33
2018-09-08T08:28:56.780Z,18.24
2018-09-08T08:29:57.197Z,18.27
2018-09-08T08:30:57.617Z,18.41
2018-09-08T08:31:58.888Z,18.39
2018-09-08T08:32:59.026Z,18.57
2018-09-08T08:33:59.166Z,18.7
2018-09-08T08:34:59.584Z,18.73
2018-09-08T08:35:59.730Z,18.74
2018-09-08T08:37:00.710Z,18.74
2018-09-08T08:38:01.126Z,18.85
2018-09-08T08:39:01.266Z,18.91
2018-09-08T08:40:01.405Z,18.85
2018-09-08T08:41:01.549Z,19.04
2018-09-08T08:42:02.542Z,19.05
2018-09-08T08:43:02.960Z,18.96
2018-09-08T08:44:03.935Z,18.92
2018-09-08T08:45:04.634Z,18.73
2018-09-08T08:46:05.054Z,18.57
2018-09-08T08:47:05.470Z,18.53
2018-09-08T08:48:05.890Z,18.48
2018-09-08T08:49:06.311Z,18.53
2018-09-08T08:50:06.776Z,18.58
2018-09-08T08:51:07.750Z,18.7
2018-09-08T08:52:08.297Z,18.71
2018-09-08T08:53:08.994Z,18.92
2018-09-08T08:54:09.428Z,18.85
2018-09-08T08:55:09.843Z,19.04
2018-09-08T08:56:09.984Z,19.11
2018-09-08T08:57:10.720Z,19.19
2018-09-08T08:58:10.690Z,19.23
2018-09-08T08:59:11.386Z,19.19
2018-09-08T09:00:11.804Z,19.01
2018-09-08T09:01:12.501Z,18.78
2018-09-08T09:02:14.051Z,18.67
2018-09-08T09:03:14.037Z,18.71
2018-09-08T09:04:14.456Z,18.63
2018-09-08T09:05:15.437Z,18.61
2018-09-08T09:06:15.575Z,18.73
2018-09-08T09:07:16.529Z,18.85
2018-09-08T09:08:17.703Z,19.05
2018-09-08T09:09:17.356Z,19.32
2018-09-08T09:10:17.775Z,19.38
2018-09-08T09:11:17.918Z,19.37
2018-09-08T09:12:18.383Z,19.27
2018-09-08T09:13:19.302Z,19.08
2018-09-08T09:14:19.645Z,18.91
2018-09-08T09:15:21.104Z,18.91
2018-09-08T09:16:20.806Z,19.08
2018-09-08T09:17:20.951Z,19.49
2018-09-08T09:18:22.709Z,19.81
2018-09-08T09:19:22.132Z,20.17
2018-09-08T09:20:22.278Z,21.07
2018-09-08T09:21:22.986Z,21.69
2018-09-08T09:22:23.973Z,21.78
2018-09-08T09:23:24.825Z,22.12
2018-09-08T09:24:26.211Z,22.18
2018-09-08T09:25:26.240Z,21.83
2018-09-08T09:26:26.942Z,21.89
2018-09-08T09:27:27.386Z,22.21
2018-09-08T09:28:27.524Z,22.38
2018-09-08T09:29:27.953Z,22.25
2018-09-08T09:30:29.216Z,22.38
2018-09-08T09:31:29.910Z,22.53
2018-09-08T09:32:30.904Z,22.25
2018-09-08T09:33:31.329Z,21.69
2018-09-08T09:34:32.033Z,21.41
2018-09-08T09:35:32.736Z,21.1
2018-09-08T09:36:33.436Z,20.88
2018-09-08T09:37:34.137Z,20.77
2018-09-08T09:38:34.841Z,20.68
2018-09-08T09:39:34.984Z,20.53
2018-09-08T09:40:35.690Z,20.39
2018-09-08T09:41:35.945Z,20.59
2018-09-08T09:42:35.938Z,20.56
2018-09-08T09:43:36.360Z,20.4
2018-09-08T09:44:36.782Z,20.75
2018-09-08T09:45:37.208Z,21.65
2018-09-08T09:46:37.354Z,21.83
2018-09-08T09:47:38.344Z,21.41
2018-09-08T09:48:38.767Z,21.03
2018-09-08T09:49:38.912Z,20.6
2018-09-08T09:50:39.354Z,20.21
2018-09-08T09:51:39.778Z,19.84
2018-09-08T09:52:40.328Z,19.75
2018-09-08T09:53:40.751Z,19.66
2018-09-08T09:54:41.449Z,19.53
2018-09-08T09:55:41.870Z,19.38
2018-09-08T09:56:42.293Z,19.27
2018-09-08T09:57:42.993Z,19.24
2018-09-08T09:58:43.413Z,19.32
2018-09-08T09:59:43.558Z,19.42
2018-09-08T10:00:43.701Z,19.77
2018-09-08T10:01:44.132Z,20.07
2018-09-08T10:02:44.400Z,20.14
2018-09-08T10:03:44.823Z,19.9
2018-09-08T10:04:44.966Z,19.79
2018-09-08T10:05:46.222Z,19.52
2018-09-08T10:06:46.365Z,19.37
2018-09-08T10:07:46.786Z,19.38
2018-09-08T10:08:47.208Z,19.16
2018-09-08T10:09:48.460Z,19.07
2018-09-08T10:10:48.603Z,19.11
2018-09-08T10:11:49.024Z,19.94
2018-09-08T10:12:49.020Z,19.79
2018-09-08T10:13:49.161Z,19.63
2018-09-08T10:14:49.858Z,19.35
2018-09-08T10:15:50.282Z,19.07
2018-09-08T10:16:50.981Z,19.01
2018-09-08T10:17:51.405Z,19.04
2018-09-08T10:18:52.116Z,19.38
2018-09-08T10:19:52.818Z,20.24
2018-09-08T10:20:53.522Z,20.63
2018-09-08T10:21:53.218Z,20.21
2018-09-08T10:22:54.636Z,20.74
2018-09-08T10:24:06.305Z,21.22
2018-09-08T10:24:54.726Z,21.65
2018-09-08T10:25:55.155Z,22.03
2018-09-08T10:26:55.859Z,21.44
2018-09-08T10:27:56.284Z,21.01
2018-09-08T10:28:57.258Z,20.63
2018-09-08T10:29:57.681Z,20.39
2018-09-08T10:30:58.427Z,20.22
2018-09-08T10:31:58.569Z,20.26
2018-09-08T10:32:59.839Z,20.6
2018-09-08T10:34:00.540Z,21.47
2018-09-08T10:35:01.243Z,22.07
2018-09-08T10:36:01.388Z,22.46
2018-09-08T10:37:01.533Z,22.84
2018-09-08T10:38:01.680Z,23.2
2018-09-08T10:39:01.827Z,22.83
2018-09-08T10:40:02.248Z,22.73
2018-09-08T10:41:02.394Z,22.74
2018-09-08T10:42:03.372Z,22.56
2018-09-08T10:43:03.369Z,22.58
2018-09-08T10:44:04.346Z,22.71
2018-09-08T10:45:05.047Z,22.47
2018-09-08T10:46:05.193Z,22.58
2018-09-08T10:47:05.616Z,22.56
2018-09-08T10:48:06.091Z,22.76
2018-09-08T10:49:07.073Z,22.46
2018-09-08T10:50:07.215Z,22.06
2018-09-08T10:51:07.916Z,21.81
2018-09-08T10:52:08.059Z,22
2018-09-08T10:53:09.335Z,22.52
2018-09-08T10:54:09.482Z,22.71
2018-09-08T10:55:10.468Z,22.96
2018-09-08T10:56:10.218Z,23.39
2018-09-08T10:57:10.364Z,23.25
2018-09-08T10:58:10.509Z,23.13
2018-09-08T10:59:10.656Z,23.2
2018-09-08T11:00:11.080Z,23.26
2018-09-08T11:01:11.507Z,23.39
2018-09-08T11:02:13.051Z,23.34
2018-09-08T11:03:12.417Z,23.51
2018-09-08T11:04:12.562Z,23.7
2018-09-08T11:05:12.989Z,23.84
2018-09-08T11:06:13.692Z,23.25
2018-09-08T11:07:14.396Z,22.83
2018-09-08T11:08:15.099Z,22.53
2018-09-08T11:09:15.245Z,22.04
2018-09-08T11:10:15.669Z,21.6
2018-09-08T11:11:15.811Z,21.5
2018-09-08T11:12:17.069Z,21.28
2018-09-08T11:13:17.060Z,21.5
2018-09-08T11:14:17.486Z,21.72
2018-09-08T11:15:18.744Z,21.96
2018-09-08T11:16:18.892Z,22.08
2018-09-08T11:17:19.596Z,22.25
2018-09-08T11:18:20.574Z,22.46
2018-09-08T11:19:21.000Z,22.74
2018-09-08T11:20:21.148Z,23.06
2018-09-08T11:21:21.573Z,22.92
2018-09-08T11:22:21.719Z,23.08
2018-09-08T11:23:22.274Z,23.06
2018-09-08T11:24:22.977Z,23.11
2018-09-08T11:25:23.126Z,23.13
2018-09-08T11:26:23.551Z,22.96
2018-09-08T11:27:23.974Z,22.88
2018-09-08T11:28:24.680Z,22.83
2018-09-08T11:29:24.829Z,22.93
2018-09-08T11:30:25.883Z,22.98
2018-09-08T11:31:26.303Z,22.93
2018-09-08T11:32:27.327Z,22.93
2018-09-08T11:33:27.607Z,22.96
2018-09-08T11:34:28.314Z,23.21
2018-09-08T11:35:29.024Z,23.36
2018-09-08T11:36:29.730Z,23.21
2018-09-08T11:37:30.439Z,23.26
2018-09-08T11:38:31.653Z,23.37
2018-09-08T11:39:30.961Z,23.52
2018-09-08T11:40:31.388Z,23.84
2018-09-08T11:41:31.538Z,24.09
2018-09-08T11:42:32.244Z,24.18
2018-09-08T11:43:33.248Z,24.34
2018-09-08T11:44:33.398Z,24.53
2018-09-08T11:45:34.381Z,23.95
2018-09-08T11:46:34.809Z,23.59
2018-09-08T11:47:35.794Z,23.47
2018-09-08T11:48:36.225Z,23.47
2018-09-08T11:49:36.843Z,23.44
2018-09-08T11:50:37.039Z,23.2
2018-09-08T11:51:37.467Z,23.08
2018-09-08T11:52:37.897Z,23.2
2018-09-08T11:53:38.617Z,23.36
2018-09-08T11:54:38.765Z,23.47
2018-09-08T11:55:40.015Z,23.51
2018-09-08T11:56:40.100Z,23.4
2018-09-08T11:57:40.803Z,23.39
2018-09-08T11:58:41.234Z,23.16
2018-09-08T11:59:41.853Z,23.14
2018-09-08T12:00:42.366Z,23.1
2018-09-08T12:01:43.072Z,23.2
2018-09-08T12:02:43.502Z,23.28
2018-09-08T12:03:43.780Z,23.4
2018-09-08T12:04:44.765Z,23.73
2018-09-08T12:05:45.193Z,23.64
2018-09-08T12:06:45.901Z,23.58
2018-09-08T12:07:46.881Z,23.44
2018-09-08T12:08:47.310Z,23.34
2018-09-08T12:09:48.016Z,23.23
2018-09-08T12:10:49.175Z,23.25
2018-09-08T12:11:48.896Z,23.11
2018-09-08T12:12:49.321Z,23.07
2018-09-08T12:13:49.971Z,22.92
2018-09-08T12:14:49.712Z,23.01
2018-09-08T12:15:50.133Z,23.23
2018-09-08T12:16:50.279Z,23.4
2018-09-08T12:17:50.705Z,23.44
2018-09-08T12:18:51.411Z,23.59
2018-09-08T12:19:51.562Z,23.67
2018-09-08T12:20:51.714Z,23.91
2018-09-08T12:21:52.419Z,24.09
2018-09-08T12:22:53.120Z,24.21
2018-09-08T12:23:53.395Z,24.48
2018-09-08T12:24:53.545Z,24.53
2018-09-08T12:25:53.970Z,24.61
2018-09-08T12:26:54.395Z,24.62
2018-09-08T12:27:54.822Z,24.59
2018-09-08T12:28:54.972Z,24.86
2018-09-08T12:29:55.696Z,24.92
2018-09-08T12:30:57.221Z,25.16
2018-09-08T12:31:56.957Z,25.15
2018-09-08T12:32:57.382Z,24.84
2018-09-08T12:33:58.391Z,24.31
2018-09-08T12:34:59.146Z,23.89
2018-09-08T12:35:59.296Z,23.79
2018-09-08T12:36:59.723Z,23.84
2018-09-08T12:38:00.150Z,23.86
2018-09-08T12:39:01.077Z,23.62
2018-09-08T12:40:01.765Z,23.55
2018-09-08T12:41:01.913Z,23.56
2018-09-08T12:42:02.063Z,23.66
2018-09-08T12:43:02.213Z,23.82
2018-09-08T12:44:03.211Z,23.79
2018-09-08T12:45:03.985Z,23.89
2018-09-08T12:46:04.412Z,24.09
2018-09-08T12:47:04.557Z,24.36
2018-09-08T12:48:05.262Z,24.56
2018-09-08T12:49:05.969Z,24.59
2018-09-08T12:50:06.116Z,24.51
2018-09-08T12:51:06.824Z,24.55
2018-09-08T12:52:07.633Z,24.77
2018-09-08T12:53:08.015Z,24.85
2018-09-08T12:54:08.567Z,25
2018-09-08T12:55:08.998Z,24.92
2018-09-08T12:56:09.712Z,24.65
2018-09-08T12:57:10.139Z,24.65
2018-09-08T12:58:10.565Z,24.84
2018-09-08T12:59:11.636Z,25.06
2018-09-08T13:00:11.390Z,25.14
2018-09-08T13:01:12.099Z,25.16